Time;durP1;ratioP1;P1;durP2;ratioP2;P2;SDS_P1;SDS_P2;PMS_P1;PMS_P2;Temp;Humidity;BMP_temperature;BMP_pressure;BME280_temperature;BME280_humidity;BME280_pressure;Samples;Min_cycle;Max_cycle;Signal;HPM_P1;HPM_P2
2020/12/20 05:02:37;;;;;;;7.53;6.93;;;7.60;99.90;;;;;;4992248;23;20901;-64
2020/12/20 05:05:03;;;;;;;8.30;7.50;;;7.80;99.90;;;;;;4976845;28;20466;-64
2020/12/20 05:07:29;;;;;;;10.50;9.40;;;7.90;99.90;;;;;;4977191;28;20455;-65
2020/12/20 05:09:55;;;;;;;24.53;14.70;;;7.90;99.90;;;;;;4977118;28;20462;-65
2020/12/20 05:12:27;;;;;;;20.03;13.17;;;8.00;99.90;;;;;;4976986;28;20486;-64
2020/12/20 05:14:53;;;;;;;11.73;10.17;;;8.00;99.90;;;;;;4976909;28;20454;-64
2020/12/20 05:17:19;;;;;;;9.50;8.50;;;8.10;99.90;;;;;;4976910;28;20861;-65
2020/12/20 05:19:46;;;;;;;9.47;7.67;;;8.10;99.90;;;;;;4976719;28;20509;-65
2020/12/20 05:22:15;;;;;;;8.43;7.00;;;8.10;99.90;;;;;;4976309;28;20482;-65
2020/12/20 05:24:42;;;;;;;7.90;7.30;;;8.10;99.90;;;;;;4976067;28;21016;-65
2020/12/20 05:27:20;;;;;;;7.87;7.07;;;8.10;99.90;;;;;;4976718;28;20540;-65
2020/12/20 05:29:49;;;;;;;9.03;8.23;;;8.10;99.90;;;;;;4976282;28;20498;-65
2020/12/20 05:32:25;;;;;;;8.13;7.33;;;8.20;99.90;;;;;;4976081;28;20474;-64
2020/12/20 05:35:03;;;;;;;8.33;7.53;;;8.20;99.90;;;;;;4976303;28;20446;-64
2020/12/20 05:37:31;;;;;;;8.60;7.70;;;8.10;99.90;;;;;;4976566;28;20463;-64
2020/12/20 05:39:58;;;;;;;7.70;7.00;;;8.10;99.90;;;;;;4976353;28;20463;-64
2020/12/20 05:42:25;;;;;;;7.63;6.93;;;8.10;99.90;;;;;;4975607;28;21049;-65
2020/12/20 05:45:07;;;;;;;7.60;7.00;;;8.20;99.90;;;;;;4975624;28;20945;-64
2020/12/20 05:47:34;;;;;;;7.17;6.57;;;8.20;99.90;;;;;;4975962;28;20443;-65
2020/12/20 05:50:01;;;;;;;7.20;6.60;;;8.20;99.90;;;;;;4975815;28;20454;-65
2020/12/20 05:52:27;;;;;;;7.33;6.63;;;8.10;99.90;;;;;;4975478;28;20475;-65
2020/12/20 05:54:53;;;;;;;9.73;8.73;;;8.10;99.90;;;;;;4975739;28;20454;-64
2020/12/20 05:57:21;;;;;;;7.70;7.00;;;8.00;99.90;;;;;;4975619;28;20565;-63
2020/12/20 05:59:48;;;;;;;7.43;6.57;;;7.90;99.90;;;;;;4975401;28;20965;-63
2020/12/20 06:02:16;;;;;;;8.50;7.60;;;7.70;99.90;;;;;;4975303;28;20485;-64
2020/12/20 06:04:43;;;;;;;7.60;6.90;;;7.70;99.90;;;;;;4975621;28;20481;-65
2020/12/20 06:07:12;;;;;;;7.83;6.83;;;7.70;99.90;;;;;;4975584;28;20450;-64
2020/12/20 06:09:57;;;;;;;7.77;7.07;;;7.70;99.90;;;;;;4975740;28;20451;-64
2020/12/20 06:12:25;;;;;;;8.33;7.03;;;7.70;99.90;;;;;;4975672;28;20477;-65
2020/12/20 06:14:52;;;;;;;8.50;6.93;;;7.90;99.90;;;;;;4976221;28;20524;-65
2020/12/20 06:17:20;;;;;;;8.00;7.20;;;7.90;99.90;;;;;;4974332;28;20936;-64
2020/12/20 06:19:51;;;;;;;7.30;6.70;;;8.00;99.90;;;;;;4975339;28;20455;-64
2020/12/20 06:22:25;;;;;;;7.73;6.83;;;8.10;99.90;;;;;;4975308;28;20533;-66
2020/12/20 06:24:53;;;;;;;8.43;7.00;;;8.10;99.90;;;;;;4975340;28;20453;-64
2020/12/20 06:27:22;;;;;;;7.33;6.60;;;8.10;99.90;;;;;;4975120;28;20474;-64
2020/12/20 06:29:50;;;;;;;7.20;6.50;;;8.00;99.90;;;;;;4975242;28;20466;-65
2020/12/20 06:32:23;;;;;;;8.00;7.30;;;8.10;99.90;;;;;;4975181;28;20485;-64
2020/12/20 06:34:50;;;;;;;7.50;6.90;;;8.10;99.90;;;;;;4975081;28;20447;-64
2020/12/20 06:37:23;;;;;;;8.50;6.50;;;8.00;99.90;;;;;;4974996;28;20552;-66
2020/12/20 06:39:49;;;;;;;8.40;6.97;;;8.10;99.90;;;;;;4975073;28;20506;-65
2020/12/20 06:42:15;;;;;;;7.80;7.00;;;7.90;99.90;;;;;;4974927;28;20478;-66
2020/12/20 06:44:41;;;;;;;7.33;6.67;;;7.80;99.90;;;;;;4974685;28;20451;-64
2020/12/20 06:47:08;;;;;;;7.40;6.50;;;7.70;99.90;;;;;;4975045;28;20463;-65
2020/12/20 06:49:37;;;;;;;7.40;6.40;;;7.70;99.90;;;;;;4975553;28;20458;-63
2020/12/20 06:52:19;;;;;;;7.07;6.47;;;7.70;99.90;;;;;;4974983;28;20487;-65
2020/12/20 06:55:03;;;;;;;6.93;6.32;;;7.70;99.90;;;;;;4974216;28;20454;-64
2020/12/20 06:57:29;;;;;;;7.97;7.37;;;7.90;99.90;;;;;;4974880;28;20513;-63
2020/12/20 06:59:55;;;;;;;7.97;7.27;;;8.00;99.90;;;;;;4975107;28;20454;-64
2020/12/20 07:02:47;;;;;;;7.73;7.03;;;8.00;99.90;;;;;;4974528;28;20486;-64
2020/12/20 07:05:38;;;;;;;6.93;6.23;;;8.00;99.90;;;;;;4974776;28;20871;-65
2020/12/20 07:08:20;;;;;;;7.30;6.63;;;7.90;99.90;;;;;;4974810;28;20455;-63
2020/12/20 07:10:49;;;;;;;7.47;6.77;;;7.90;99.90;;;;;;4974670;28;20471;-63
2020/12/20 07:13:30;;;;;;;8.10;7.30;;;7.90;99.90;;;;;;4974629;28;20443;-64
2020/12/20 07:16:04;;;;;;;7.17;6.57;;;7.90;99.90;;;;;;4974315;28;20438;-64
2020/12/20 07:18:41;;;;;;;7.23;6.57;;;8.00;99.90;;;;;;4974601;28;20475;-65
2020/12/20 07:21:10;;;;;;;10.93;6.97;;;8.00;99.90;;;;;;4974982;28;20482;-63
2020/12/20 07:23:40;;;;;;;7.27;6.57;;;8.00;99.90;;;;;;4974729;28;20793;-65
2020/12/20 07:26:07;;;;;;;7.63;6.60;;;7.80;99.90;;;;;;4974655;28;20467;-64
2020/12/20 07:28:33;;;;;;;8.07;7.27;;;7.70;99.90;;;;;;4976690;28;20455;-62
2020/12/20 07:30:59;;;;;;;6.37;5.87;;;7.80;99.90;;;;;;4978332;28;20481;-62
2020/12/20 07:33:26;;;;;;;7.03;6.53;;;7.80;99.90;;;;;;4978413;28;20462;-63
2020/12/20 07:35:52;;;;;;;7.80;7.10;;;7.80;99.90;;;;;;4978408;28;20442;-64
2020/12/20 07:38:18;;;;;;;7.33;6.73;;;7.90;99.90;;;;;;4978694;28;20462;-62
2020/12/20 07:40:44;;;;;;;7.17;6.60;;;7.80;99.90;;;;;;4978153;28;20478;-64
2020/12/20 07:43:11;;;;;;;7.00;6.30;;;7.80;99.90;;;;;;4978300;28;20454;-62
2020/12/20 07:45:37;;;;;;;7.20;6.57;;;7.80;99.90;;;;;;4978057;28;20521;-63
2020/12/20 07:48:04;;;;;;;8.33;7.53;;;7.80;99.90;;;;;;4977777;28;20454;-62
2020/12/20 07:50:30;;;;;;;7.37;6.70;;;7.70;99.90;;;;;;4978415;28;20463;-64
2020/12/20 07:52:56;;;;;;;8.83;6.17;;;7.70;99.90;;;;;;4977745;28;20454;-62
2020/12/20 07:55:22;;;;;;;7.33;6.63;;;7.70;99.90;;;;;;4978071;28;20458;-62
2020/12/20 07:57:49;;;;;;;7.00;6.20;;;7.80;99.90;;;;;;4977605;28;20889;-62
2020/12/20 08:00:17;;;;;;;6.53;6.00;;;7.90;99.90;;;;;;4977654;28;20459;-64
2020/12/20 08:02:43;;;;;;;7.03;6.37;;;8.00;99.90;;;;;;4977712;28;20884;-61
2020/12/20 08:05:14;;;;;;;7.30;6.70;;;8.30;99.90;;;;;;4977859;28;20458;-62
2020/12/20 08:07:41;;;;;;;7.17;6.57;;;8.40;99.90;;;;;;4977954;28;20454;-63
2020/12/20 08:10:07;;;;;;;7.17;6.53;;;8.60;99.90;;;;;;4977897;28;20814;-62
2020/12/20 08:12:34;;;;;;;6.37;5.87;;;8.80;99.90;;;;;;4977419;28;20994;-64
2020/12/20 08:15:04;;;;;;;7.40;6.47;;;8.90;99.90;;;;;;4977575;28;20458;-63
2020/12/20 08:17:31;;;;;;;7.07;6.47;;;9.00;99.90;;;;;;4977519;28;20498;-65
2020/12/20 08:20:01;;;;;;;7.23;6.63;;;9.10;99.90;;;;;;4977487;28;20462;-64
2020/12/20 08:22:31;;;;;;;6.57;6.03;;;8.90;99.90;;;;;;4977419;28;20478;-64
2020/12/20 08:24:59;;;;;;;8.17;7.47;;;8.90;99.90;;;;;;4977419;28;20443;-62
2020/12/20 08:27:27;;;;;;;7.47;6.77;;;8.90;99.90;;;;;;4977414;28;20450;-63
2020/12/20 08:29:55;;;;;;;6.90;6.30;;;8.90;99.90;;;;;;4977327;28;20458;-63
2020/12/20 08:32:24;;;;;;;6.37;5.80;;;8.80;99.90;;;;;;4977534;28;20479;-63
2020/12/20 08:34:51;;;;;;;6.80;6.20;;;8.70;99.90;;;;;;4977286;28;20526;-62
2020/12/20 08:37:19;;;;;;;6.07;5.67;;;8.80;99.90;;;;;;4977038;28;20459;-63
2020/12/20 08:39:45;;;;;;;6.77;6.27;;;8.70;99.90;;;;;;4976409;28;20454;-62
2020/12/20 08:42:14;;;;;;;6.87;6.37;;;8.70;99.90;;;;;;4977130;28;20586;-61
2020/12/20 08:44:41;;;;;;;8.27;7.37;;;8.70;99.90;;;;;;4977424;28;20458;-63
2020/12/20 08:47:13;;;;;;;6.43;6.03;;;8.60;99.90;;;;;;4977296;28;20466;-62
2020/12/20 08:49:40;;;;;;;6.97;6.27;;;8.70;99.90;;;;;;4977363;28;20447;-62
2020/12/20 08:52:12;;;;;;;7.22;6.60;;;8.60;99.90;;;;;;4976124;28;20465;-64
2020/12/20 08:54:39;;;;;;;8.00;7.27;;;8.70;99.90;;;;;;4976911;28;20230;-63
2020/12/20 08:57:07;;;;;;;7.40;6.80;;;8.80;99.90;;;;;;4976826;28;20517;-65
2020/12/20 08:59:35;;;;;;;7.37;6.77;;;8.80;99.90;;;;;;4976829;28;20486;-64
2020/12/20 09:02:03;;;;;;;7.60;6.90;;;8.70;99.90;;;;;;4976360;28;20489;-63
2020/12/20 09:04:31;;;;;;;7.83;7.13;;;8.80;99.90;;;;;;4977687;28;20482;-61
2020/12/20 09:07:09;;;;;;;7.97;7.27;;;8.90;99.90;;;;;;4976594;28;20462;-62
2020/12/20 09:09:39;;;;;;;8.90;7.20;;;9.10;99.90;;;;;;4976817;28;20478;-61
2020/12/20 09:12:20;;;;;;;8.00;7.30;;;9.30;99.90;;;;;;4976724;28;20506;-62
2020/12/20 09:15:06;;;;;;;7.30;6.60;;;9.40;99.90;;;;;;4976808;28;20458;-61
2020/12/20 09:17:34;;;;;;;7.63;7.00;;;9.60;99.90;;;;;;4976559;28;20474;-62
2020/12/20 09:20:00;;;;;;;8.20;7.50;;;9.50;99.90;;;;;;4976599;28;20462;-63
2020/12/20 09:22:44;;;;;;;8.07;7.40;;;9.70;99.90;;;;;;4976185;28;20486;-62
2020/12/20 09:25:12;;;;;;;8.90;8.10;;;9.90;99.90;;;;;;4976372;28;20443;-62
2020/12/20 09:27:50;;;;;;;7.97;7.27;;;10.10;99.90;;;;;;4976258;28;20458;-64
2020/12/20 09:30:16;;;;;;;8.00;7.40;;;10.30;99.90;;;;;;4976686;28;20439;-63
2020/12/20 09:32:42;;;;;;;8.00;7.27;;;10.50;99.90;;;;;;4977135;28;20455;-64
2020/12/20 09:35:10;;;;;;;6.90;6.40;;;10.70;99.90;;;;;;4976024;28;20960;-64
2020/12/20 09:37:41;;;;;;;7.63;7.03;;;10.90;99.90;;;;;;4976700;28;20487;-63
2020/12/20 09:40:09;;;;;;;7.23;6.60;;;11.10;99.90;;;;;;4978076;28;20455;-62
2020/12/20 09:42:43;;;;;;;8.57;7.77;;;11.20;99.90;;;;;;4976140;28;20478;-63
2020/12/20 09:45:11;;;;;;;7.50;6.80;;;11.40;99.90;;;;;;4976579;28;20447;-63
2020/12/20 09:47:38;;;;;;;7.27;6.53;;;11.50;99.90;;;;;;4976135;28;20450;-63
2020/12/20 09:50:05;;;;;;;6.90;6.30;;;11.50;99.90;;;;;;4975569;28;20850;-62
2020/12/20 09:52:32;;;;;;;7.43;6.83;;;11.60;99.90;;;;;;4974895;28;20490;-63
2020/12/20 09:54:59;;;;;;;9.33;7.30;;;11.70;99.90;;;;;;4976736;28;20526;-63
2020/12/20 09:57:25;;;;;;;9.77;8.77;;;11.70;99.90;;;;;;4998611;28;20487;-63
2020/12/20 09:59:52;;;;;;;8.83;8.07;;;11.80;99.90;;;;;;4997287;28;20466;-63
2020/12/20 10:02:18;;;;;;;8.40;7.70;;;11.70;99.90;;;;;;4998321;28;20474;-63
2020/12/20 10:04:45;;;;;;;7.63;7.13;;;11.60;99.90;;;;;;4998231;28;20459;-63
2020/12/20 10:07:11;;;;;;;7.67;7.07;;;11.60;99.90;;;;;;4987577;28;20455;-62
2020/12/20 10:09:37;;;;;;;7.87;7.17;;;11.50;99.90;;;;;;4976889;28;20822;-64
2020/12/20 10:12:03;;;;;;;8.30;7.57;;;11.50;99.90;;;;;;4976743;28;20586;-63
2020/12/20 10:14:29;;;;;;;8.00;7.27;;;11.60;99.90;;;;;;4976927;28;20505;-64
2020/12/20 10:16:56;;;;;;;8.77;7.87;;;11.30;99.90;;;;;;4975819;28;20439;-63
2020/12/20 10:19:22;;;;;;;12.00;8.03;;;11.10;99.90;;;;;;4975697;28;20481;-63
2020/12/20 10:21:49;;;;;;;18.50;8.83;;;10.80;99.90;;;;;;4975417;28;20479;-62
2020/12/20 10:24:16;;;;;;;8.87;8.00;;;10.70;99.90;;;;;;4975275;28;20454;-62
2020/12/20 10:26:44;;;;;;;8.13;7.43;;;10.80;99.90;;;;;;4975315;28;20459;-62
2020/12/20 10:29:13;;;;;;;8.50;7.80;;;10.80;99.90;;;;;;4975161;28;20451;-63
2020/12/20 10:31:39;;;;;;;9.37;7.83;;;10.90;99.90;;;;;;4975403;28;20489;-62
2020/12/20 10:34:06;;;;;;;8.77;7.90;;;10.90;99.90;;;;;;4975730;28;20830;-62
2020/12/20 10:36:33;;;;;;;11.60;7.93;;;10.80;99.90;;;;;;4975002;28;20987;-65
2020/12/20 10:38:59;;;;;;;8.73;7.00;;;10.80;99.90;;;;;;4975238;28;20486;-63
2020/12/20 10:41:25;;;;;;;8.73;7.93;;;10.80;99.90;;;;;;4975795;28;20475;-64
2020/12/20 10:43:51;;;;;;;9.27;7.70;;;10.80;99.90;;;;;;4975050;28;20517;-62
2020/12/20 10:46:18;;;;;;;8.03;7.43;;;10.80;99.90;;;;;;4974890;28;20466;-63
2020/12/20 10:48:44;;;;;;;8.87;8.07;;;10.90;99.90;;;;;;4975682;28;20463;-64
2020/12/20 10:51:12;;;;;;;8.60;7.70;;;10.90;99.90;;;;;;4974916;28;20485;-63
2020/12/20 10:53:38;;;;;;;7.70;7.10;;;10.90;99.90;;;;;;4975073;28;20442;-63
2020/12/20 10:56:05;;;;;;;8.10;7.40;;;10.80;99.90;;;;;;4975055;28;20463;-63
2020/12/20 10:58:31;;;;;;;8.30;7.60;;;10.80;99.90;;;;;;4975734;28;20478;-65
2020/12/20 11:00:57;;;;;;;6.83;6.23;;;10.70;99.90;;;;;;4975252;28;20543;-64
2020/12/20 11:03:23;;;;;;;8.10;7.40;;;10.60;99.90;;;;;;4974576;28;20455;-63
2020/12/20 11:05:49;;;;;;;8.37;7.40;;;10.60;99.90;;;;;;4974420;28;20450;-63
2020/12/20 11:08:16;;;;;;;8.37;7.67;;;10.60;99.90;;;;;;4975332;28;20455;-64
2020/12/20 11:10:43;;;;;;;7.80;7.00;;;10.70;99.90;;;;;;4976024;28;20833;-63
2020/12/20 11:13:09;;;;;;;8.33;7.60;;;10.80;99.90;;;;;;4977224;28;20455;-64
2020/12/20 11:15:35;;;;;;;8.63;7.93;;;10.80;99.90;;;;;;4974953;28;20797;-64
2020/12/20 11:18:01;;;;;;;8.40;7.63;;;11.00;99.90;;;;;;4974718;28;20483;-63
2020/12/20 11:20:27;;;;;;;7.70;7.07;;;11.20;99.90;;;;;;4974310;28;20459;-64
2020/12/20 11:22:54;;;;;;;8.60;7.80;;;11.40;99.90;;;;;;4974635;28;20552;-62
2020/12/20 11:25:21;;;;;;;9.20;8.30;;;11.50;99.90;;;;;;4974585;28;20455;-63
2020/12/20 11:27:48;;;;;;;10.53;8.07;;;11.70;99.90;;;;;;5012823;23;20490;-61
2020/12/20 11:30:14;;;;;;;8.80;8.00;;;11.80;99.90;;;;;;4974561;28;20529;-61
2020/12/20 11:32:40;;;;;;;8.73;7.87;;;11.70;99.90;;;;;;4974539;28;20454;-61
2020/12/20 11:35:06;;;;;;;8.57;7.87;;;11.70;99.90;;;;;;4974983;28;20450;-61
2020/12/20 11:37:33;;;;;;;9.20;8.40;;;11.90;99.90;;;;;;4974237;28;21095;-61
2020/12/20 11:39:59;;;;;;;9.17;8.37;;;11.90;99.90;;;;;;4974588;28;20828;-62
2020/12/20 11:42:26;;;;;;;8.87;8.07;;;11.90;99.90;;;;;;4974782;28;20438;-61
2020/12/20 11:44:52;;;;;;;9.47;8.57;;;12.00;99.90;;;;;;4974619;28;20458;-61
2020/12/20 11:47:18;;;;;;;8.50;7.80;;;11.90;99.90;;;;;;4974623;28;20479;-62
2020/12/20 11:49:44;;;;;;;9.43;8.53;;;11.90;99.90;;;;;;4974474;28;20458;-61
2020/12/20 11:52:10;;;;;;;8.83;8.03;;;11.90;99.90;;;;;;4974380;28;20482;-60
2020/12/20 11:54:38;;;;;;;9.70;8.80;;;11.90;99.90;;;;;;4974952;28;20459;-60
2020/12/20 11:57:04;;;;;;;9.40;8.20;;;11.70;99.90;;;;;;4975566;28;20470;-60
2020/12/20 11:59:31;;;;;;;10.57;8.30;;;11.50;99.90;;;;;;4974054;28;20825;-60
2020/12/20 12:02:00;;;;;;;12.03;10.00;;;11.60;99.90;;;;;;4974343;28;20964;-60
2020/12/20 12:04:26;;;;;;;13.50;9.47;;;11.80;99.90;;;;;;4974671;28;20565;-60
2020/12/20 12:06:52;;;;;;;10.53;9.33;;;12.10;99.90;;;;;;4974237;28;20474;-61
2020/12/20 12:09:18;;;;;;;11.13;8.60;;;12.30;99.90;;;;;;4974069;28;20968;-60
2020/12/20 12:11:45;;;;;;;10.57;9.47;;;12.40;99.90;;;;;;4974465;28;20458;-60
2020/12/20 12:14:11;;;;;;;11.50;10.30;;;12.50;99.90;;;;;;4974863;28;20458;-60
2020/12/20 12:16:38;;;;;;;11.40;10.30;;;12.60;99.90;;;;;;4977763;28;20454;-60
2020/12/20 12:19:04;;;;;;;13.33;12.23;;;12.40;99.90;;;;;;4977606;28;20485;-60
2020/12/20 12:21:30;;;;;;;15.00;13.60;;;12.40;99.90;;;;;;4978222;28;20458;-60
2020/12/20 12:23:56;;;;;;;12.23;11.13;;;12.30;99.90;;;;;;4978001;28;20458;-60
2020/12/20 12:26:22;;;;;;;11.27;10.27;;;12.20;99.90;;;;;;4977893;28;20455;-60
2020/12/20 12:28:49;;;;;;;11.90;10.80;;;12.10;99.90;;;;;;4977770;28;20942;-60
2020/12/20 12:31:15;;;;;;;12.80;11.70;;;12.00;99.90;;;;;;4977809;28;20435;-61
2020/12/20 12:33:42;;;;;;;10.87;9.87;;;12.00;99.90;;;;;;4982814;28;20438;-60
2020/12/20 12:36:10;;;;;;;11.40;10.30;;;12.10;99.90;;;;;;4989270;28;20435;-59
2020/12/20 12:38:36;;;;;;;10.97;9.87;;;12.10;99.90;;;;;;4988944;28;20489;-61
2020/12/20 12:41:02;;;;;;;10.80;9.80;;;12.20;99.90;;;;;;4990499;28;20458;-60
2020/12/20 12:43:29;;;;;;;10.97;9.97;;;12.20;99.90;;;;;;4990632;28;20450;-60
2020/12/20 12:45:55;;;;;;;10.50;9.40;;;12.30;99.90;;;;;;4986566;28;20458;-60
2020/12/20 12:48:21;;;;;;;11.10;10.10;;;12.30;99.90;;;;;;4980413;28;20496;-61
2020/12/20 12:50:48;;;;;;;10.40;9.60;;;12.30;99.90;;;;;;4979544;28;20450;-59
2020/12/20 12:53:15;;;;;;;10.83;9.93;;;12.30;99.90;;;;;;4978706;28;20459;-61
2020/12/20 12:55:41;;;;;;;10.90;9.90;;;12.30;99.90;;;;;;4978595;28;20455;-59
2020/12/20 12:58:07;;;;;;;11.27;10.27;;;12.30;99.90;;;;;;4978237;28;20493;-61
2020/12/20 13:00:34;;;;;;;11.77;10.63;;;12.30;99.90;;;;;;4977995;28;20513;-60
2020/12/20 13:03:00;;;;;;;10.90;9.80;;;12.20;99.90;;;;;;4978088;28;20455;-61
2020/12/20 13:05:26;;;;;;;10.77;9.83;;;12.20;99.90;;;;;;4976831;28;21014;-59
2020/12/20 13:07:53;;;;;;;10.40;9.50;;;12.20;99.90;;;;;;4976898;28;20482;-60
2020/12/20 13:10:19;;;;;;;11.03;10.00;;;12.20;99.90;;;;;;4976548;28;20949;-60
2020/12/20 13:12:45;;;;;;;10.10;9.10;;;12.20;99.90;;;;;;4976799;28;20455;-60
2020/12/20 13:15:12;;;;;;;10.50;9.70;;;12.10;99.90;;;;;;4976815;28;20461;-60
2020/12/20 13:17:38;;;;;;;11.83;10.63;;;12.00;99.90;;;;;;4976724;28;20482;-60
2020/12/20 13:20:04;;;;;;;10.60;9.50;;;11.90;99.90;;;;;;4976659;28;20937;-62
2020/12/20 13:22:30;;;;;;;11.13;9.80;;;11.80;99.90;;;;;;4977003;28;20465;-61
2020/12/20 13:24:57;;;;;;;10.60;9.60;;;11.80;99.90;;;;;;4977019;28;20945;-60
2020/12/20 13:27:23;;;;;;;11.30;10.10;;;11.90;99.90;;;;;;4980682;28;20486;-61
2020/12/20 13:29:49;;;;;;;16.33;10.07;;;11.90;99.90;;;;;;4978025;28;20447;-59
2020/12/20 13:32:16;;;;;;;13.43;9.70;;;11.90;99.90;;;;;;4976780;28;20463;-59
2020/12/20 13:34:42;;;;;;;11.27;9.93;;;11.90;99.90;;;;;;4976487;28;20455;-59
2020/12/20 13:37:08;;;;;;;11.33;10.23;;;11.90;99.90;;;;;;4976433;28;20501;-61
2020/12/20 13:39:34;;;;;;;14.77;10.27;;;11.90;99.90;;;;;;4976508;28;20490;-61
2020/12/20 13:42:01;;;;;;;10.87;9.93;;;11.90;99.90;;;;;;4976742;28;20458;-59
2020/12/20 13:44:27;;;;;;;11.77;10.57;;;11.90;99.90;;;;;;4976707;28;20462;-61
2020/12/20 13:46:53;;;;;;;10.87;9.77;;;11.90;99.90;;;;;;4976123;28;20478;-60
2020/12/20 13:49:20;;;;;;;11.03;9.93;;;11.80;99.90;;;;;;4976279;28;20455;-60
2020/12/20 13:51:50;;;;;;;12.80;10.70;;;11.80;99.90;;;;;;4976457;28;20910;-60
2020/12/20 13:54:16;;;;;;;9.50;8.60;;;11.80;99.90;;;;;;4976175;28;20443;-61
2020/12/20 13:56:42;;;;;;;11.53;9.10;;;11.70;99.90;;;;;;4975867;28;20479;-60
2020/12/20 13:59:09;;;;;;;10.37;9.37;;;11.70;99.90;;;;;;4975514;28;20513;-60
2020/12/20 14:01:36;;;;;;;10.10;9.20;;;11.70;99.90;;;;;;4976129;28;20482;-60
2020/12/20 14:04:02;;;;;;;9.87;8.90;;;11.70;99.90;;;;;;4976036;28;20454;-60
2020/12/20 14:06:28;;;;;;;10.20;9.40;;;11.70;99.90;;;;;;4976185;28;20458;-60
2020/12/20 14:08:56;;;;;;;10.83;9.93;;;11.70;99.90;;;;;;4975605;28;20818;-60
2020/12/20 14:11:23;;;;;;;10.60;9.50;;;11.70;99.90;;;;;;4975792;28;20861;-60
2020/12/20 14:13:49;;;;;;;10.83;9.53;;;11.60;99.90;;;;;;4975629;28;20455;-60
2020/12/20 14:16:16;;;;;;;10.50;9.60;;;11.50;99.90;;;;;;4975684;28;20533;-60
2020/12/20 14:18:42;;;;;;;9.73;8.93;;;11.50;99.90;;;;;;4975645;28;20973;-60
2020/12/20 14:21:08;;;;;;;10.60;9.60;;;11.50;99.90;;;;;;4975616;28;20465;-61
2020/12/20 14:23:34;;;;;;;9.10;8.10;;;11.50;99.90;;;;;;4975068;28;20458;-61
2020/12/20 14:26:01;;;;;;;9.67;8.63;;;11.70;99.90;;;;;;4975385;28;20809;-60
2020/12/20 14:28:27;;;;;;;9.17;8.47;;;11.80;99.90;;;;;;4975265;28;20485;-62
2020/12/20 14:30:53;;;;;;;8.73;7.93;;;11.80;99.90;;;;;;4975326;28;20459;-61
2020/12/20 14:33:20;;;;;;;9.23;8.47;;;11.80;99.90;;;;;;4975336;28;20458;-62
2020/12/20 14:35:49;;;;;;;8.13;7.33;;;11.80;99.90;;;;;;4975006;28;20946;-61
2020/12/20 14:38:15;;;;;;;8.70;8.00;;;11.90;99.90;;;;;;4974595;28;20489;-61
2020/12/20 14:40:42;;;;;;;8.33;7.63;;;11.80;99.90;;;;;;4975190;28;20454;-61
2020/12/20 14:43:08;;;;;;;7.90;7.37;;;11.80;99.90;;;;;;4974945;28;20992;-62
2020/12/20 14:45:34;;;;;;;9.03;8.13;;;11.80;99.90;;;;;;4975214;28;20462;-61
2020/12/20 14:48:00;;;;;;;9.60;8.60;;;11.80;99.90;;;;;;4974985;28;20471;-61
2020/12/20 14:50:29;;;;;;;8.23;7.53;;;11.80;99.90;;;;;;4975071;28;20462;-61
2020/12/20 14:52:56;;;;;;;8.97;8.27;;;11.70;99.90;;;;;;4975200;28;20513;-61
2020/12/20 14:55:22;;;;;;;10.97;8.53;;;11.60;99.90;;;;;;4975520;28;20461;-60
2020/12/20 14:57:48;;;;;;;10.60;9.50;;;11.40;99.90;;;;;;4983392;28;20475;-60
2020/12/20 15:00:15;;;;;;;9.60;8.80;;;11.40;99.90;;;;;;4984720;28;20447;-60
2020/12/20 15:02:41;;;;;;;11.27;9.40;;;11.50;99.90;;;;;;4978616;28;20458;-61
2020/12/20 15:05:07;;;;;;;9.57;8.67;;;11.40;99.90;;;;;;4975214;28;20533;-61
2020/12/20 15:07:34;;;;;;;9.63;8.80;;;11.40;99.90;;;;;;4975111;28;20482;-61
2020/12/20 15:10:00;;;;;;;9.73;8.83;;;11.40;99.90;;;;;;4975065;28;20483;-61
2020/12/20 15:12:27;;;;;;;9.60;8.70;;;11.40;99.90;;;;;;4974951;28;20465;-61
2020/12/20 15:14:54;;;;;;;9.87;9.00;;;11.30;99.90;;;;;;4975383;28;20443;-61
2020/12/20 15:17:20;;;;;;;11.30;9.23;;;11.30;99.90;;;;;;4975222;28;20497;-61
2020/12/20 15:19:46;;;;;;;9.80;8.90;;;11.30;99.90;;;;;;4974801;28;20772;-61
2020/12/20 15:22:12;;;;;;;9.70;8.60;;;11.30;99.90;;;;;;4974847;28;21024;-61
2020/12/20 15:24:39;;;;;;;11.20;10.10;;;11.30;99.90;;;;;;4975041;28;20457;-61
2020/12/20 15:27:06;;;;;;;11.47;10.47;;;11.20;99.90;;;;;;4974752;28;20495;-61
2020/12/20 15:29:32;;;;;;;12.70;11.50;;;11.20;99.90;;;;;;4974822;28;20461;-61
2020/12/20 15:31:58;;;;;;;12.87;11.47;;;11.20;99.90;;;;;;4974826;28;20533;-61
2020/12/20 15:34:25;;;;;;;13.27;11.17;;;11.10;99.90;;;;;;4975317;28;20514;-60
2020/12/20 15:36:54;;;;;;;11.47;10.20;;;11.00;99.90;;;;;;4974644;28;20479;-61
2020/12/20 15:39:21;;;;;;;12.10;10.80;;;11.00;99.90;;;;;;4974718;28;20478;-60
2020/12/20 15:41:48;;;;;;;13.33;11.83;;;11.00;99.90;;;;;;4974576;28;20826;-60
2020/12/20 15:44:14;;;;;;;12.47;11.17;;;11.00;99.90;;;;;;4974685;28;20485;-60
2020/12/20 15:46:41;;;;;;;13.47;11.40;;;10.90;99.90;;;;;;4974685;28;20510;-61
2020/12/20 15:49:07;;;;;;;17.37;14.10;;;10.80;99.90;;;;;;4976172;28;20462;-61
2020/12/20 15:51:33;;;;;;;12.90;11.67;;;10.80;99.90;;;;;;4978547;28;20459;-60
2020/12/20 15:53:59;;;;;;;13.50;12.20;;;10.60;99.90;;;;;;4978424;28;20458;-60
2020/12/20 15:56:25;;;;;;;13.17;11.80;;;10.60;99.90;;;;;;4977880;28;20451;-59
2020/12/20 15:58:54;;;;;;;12.53;11.20;;;10.60;99.90;;;;;;4978068;28;20500;-61
2020/12/20 16:01:23;;;;;;;13.47;12.20;;;10.60;99.90;;;;;;4978363;28;20458;-61
2020/12/20 16:03:49;;;;;;;16.53;13.00;;;10.50;99.90;;;;;;4979154;28;20455;-59
2020/12/20 16:06:15;;;;;;;16.13;14.53;;;10.50;99.90;;;;;;4979406;28;20439;-59
2020/12/20 16:08:41;;;;;;;16.77;14.30;;;10.40;99.90;;;;;;4979122;28;20475;-59
2020/12/20 16:11:08;;;;;;;15.57;13.97;;;10.40;99.90;;;;;;4979258;28;20817;-60
2020/12/20 16:13:34;;;;;;;15.83;14.20;;;10.40;99.90;;;;;;4978406;28;20465;-60
2020/12/20 16:16:01;;;;;;;15.67;14.07;;;10.40;99.90;;;;;;4978012;28;20537;-59
2020/12/20 16:18:27;;;;;;;14.40;13.10;;;10.40;99.90;;;;;;4977828;28;20482;-60
2020/12/20 16:20:54;;;;;;;14.77;13.27;;;10.40;99.90;;;;;;4977632;28;20943;-60
2020/12/20 16:23:20;;;;;;;15.93;14.43;;;10.40;99.90;;;;;;4977707;28;20509;-61
2020/12/20 16:25:46;;;;;;;16.03;13.33;;;10.40;99.90;;;;;;4977906;28;20458;-61
2020/12/20 16:28:13;;;;;;;15.47;13.97;;;10.40;99.90;;;;;;4978059;28;20478;-61
2020/12/20 16:30:39;;;;;;;14.67;13.27;;;10.40;99.90;;;;;;4978315;28;20863;-61
2020/12/20 16:33:06;;;;;;;15.23;13.83;;;10.40;99.90;;;;;;4977476;28;20454;-61
2020/12/20 16:35:32;;;;;;;14.57;13.00;;;10.40;99.90;;;;;;4977632;28;20809;-60
2020/12/20 16:37:58;;;;;;;15.20;13.60;;;10.40;99.90;;;;;;4977501;28;20474;-64
2020/12/20 16:40:25;;;;;;;15.13;13.70;;;10.50;99.90;;;;;;4977341;28;20443;-61
2020/12/20 16:42:51;;;;;;;16.43;14.57;;;10.40;99.90;;;;;;4978084;28;20458;-61
2020/12/20 16:45:17;;;;;;;17.13;14.63;;;10.50;99.90;;;;;;4977370;28;20505;-61
2020/12/20 16:47:43;;;;;;;16.17;14.70;;;10.40;99.90;;;;;;4977121;28;20844;-61
2020/12/20 16:50:10;;;;;;;15.60;14.00;;;10.40;99.90;;;;;;4977998;28;20454;-61
2020/12/20 16:52:36;;;;;;;14.87;13.37;;;10.40;99.90;;;;;;4977624;28;20455;-61
2020/12/20 16:55:03;;;;;;;15.30;13.80;;;10.40;99.90;;;;;;4977237;28;20793;-60
2020/12/20 16:57:29;;;;;;;16.70;15.10;;;10.30;99.90;;;;;;4977118;28;20479;-61
2020/12/20 16:59:55;;;;;;;16.97;13.20;;;10.30;99.90;;;;;;4976876;28;20838;-61
2020/12/20 17:02:21;;;;;;;15.30;13.87;;;10.30;99.90;;;;;;4977737;28;20463;-61
2020/12/20 17:04:48;;;;;;;16.43;14.60;;;10.30;99.90;;;;;;4977472;28;20457;-61
2020/12/20 17:07:15;;;;;;;14.40;13.00;;;10.30;99.90;;;;;;4978622;28;20489;-61
2020/12/20 17:09:42;;;;;;;16.67;15.07;;;10.30;99.90;;;;;;4977107;28;20451;-59
2020/12/20 17:12:08;;;;;;;21.97;19.87;;;10.30;99.90;;;;;;4977051;28;20809;-61
2020/12/20 17:14:35;;;;;;;29.77;25.67;;;10.50;99.90;;;;;;4977023;28;20454;-60
2020/12/20 17:17:01;;;;;;;16.37;14.97;;;10.50;99.90;;;;;;4976893;28;20537;-61
2020/12/20 17:19:27;;;;;;;18.57;16.37;;;10.60;99.90;;;;;;4976772;28;20811;-61
2020/12/20 17:21:53;;;;;;;18.83;16.97;;;10.70;99.90;;;;;;4976965;28;20459;-61
2020/12/20 17:24:20;;;;;;;19.07;17.27;;;10.70;99.90;;;;;;4976720;28;20513;-61
2020/12/20 17:26:46;;;;;;;16.43;15.00;;;10.60;99.90;;;;;;4977117;28;20486;-61
2020/12/20 17:29:12;;;;;;;17.40;15.53;;;10.70;99.90;;;;;;4976570;28;20496;-61
2020/12/20 17:31:39;;;;;;;16.57;15.10;;;10.70;99.90;;;;;;4976463;28;20461;-61
2020/12/20 17:34:06;;;;;;;14.83;13.43;;;10.60;99.90;;;;;;4976447;28;20454;-61
2020/12/20 17:36:32;;;;;;;16.10;13.47;;;10.60;99.90;;;;;;4976071;28;20549;-61
2020/12/20 17:38:58;;;;;;;15.73;14.10;;;10.60;99.90;;;;;;4976107;28;20598;-61
2020/12/20 17:41:27;;;;;;;16.13;14.60;;;10.50;99.90;;;;;;4976067;28;20451;-61
2020/12/20 17:43:53;;;;;;;16.90;15.30;;;10.40;99.90;;;;;;4976078;28;20485;-61
2020/12/20 17:46:21;;;;;;;18.77;16.03;;;10.40;99.90;;;;;;4976136;28;20459;-61